createdAt,value
2018-01-30T00:01:06.757Z,0.80
2018-01-30T00:03:33.017Z,0.60
2018-01-30T00:05:59.349Z,0.40
2018-01-30T00:08:25.601Z,0.60
2018-01-30T00:10:51.881Z,0.37
2018-01-30T00:13:18.136Z,0.57
2018-01-30T00:15:44.396Z,0.90
2018-01-30T00:18:10.770Z,0.60
2018-01-30T00:20:37.058Z,0.80
2018-01-30T00:23:03.365Z,0.60
2018-01-30T00:25:29.698Z,0.53
2018-01-30T00:27:55.962Z,1.20
2018-01-30T00:30:23.002Z,0.70
2018-01-30T00:32:49.269Z,0.67
2018-01-30T00:35:15.557Z,1.37
2018-01-30T00:37:41.813Z,1.07
2018-01-30T00:40:08.107Z,0.73
2018-01-30T00:42:34.487Z,0.60
2018-01-30T00:45:00.780Z,1.30
2018-01-30T00:47:27.833Z,1.10
2018-01-30T00:49:54.133Z,1.23
2018-01-30T00:52:20.406Z,1.10
2018-01-30T00:54:46.686Z,1.00
2018-01-30T00:57:12.948Z,1.10
2018-01-30T00:59:42.513Z,1.40
2018-01-30T01:02:08.818Z,1.13
2018-01-30T01:04:35.065Z,1.20
2018-01-30T01:07:03.888Z,1.43
2018-01-30T01:09:30.150Z,1.30
2018-01-30T01:11:56.420Z,1.40
2018-01-30T01:14:22.677Z,1.27
2018-01-30T01:16:48.934Z,0.97
2018-01-30T01:19:15.229Z,1.00
2018-01-30T01:21:41.515Z,1.37
2018-01-30T01:24:08.566Z,1.00
2018-01-30T01:26:34.909Z,1.20
2018-01-30T01:29:01.913Z,0.70
2018-01-30T01:31:28.229Z,0.73
2018-01-30T01:33:54.496Z,1.00
2018-01-30T01:36:23.257Z,0.90
2018-01-30T01:38:49.518Z,1.30
2018-01-30T01:41:17.652Z,1.50
2018-01-30T01:43:44.003Z,1.30
2018-01-30T01:46:10.309Z,1.07
2018-01-30T01:48:37.354Z,0.70
2018-01-30T01:51:03.618Z,1.00
2018-01-30T01:53:29.905Z,0.60
2018-01-30T01:55:56.193Z,0.87
2018-01-30T01:58:22.453Z,1.03
2018-01-30T02:00:48.926Z,0.63
2018-01-30T02:03:15.258Z,0.87
2018-01-30T02:05:41.521Z,0.90
2018-01-30T02:08:07.837Z,0.57
2018-01-30T02:10:34.127Z,0.80
2018-01-30T02:13:00.405Z,1.00
2018-01-30T02:15:26.669Z,1.00
2018-01-30T02:17:52.965Z,0.70
2018-01-30T02:20:20.065Z,0.93
2018-01-30T02:22:46.329Z,1.40
2018-01-30T02:25:12.610Z,0.90
2018-01-30T02:27:38.877Z,1.00
2018-01-30T02:30:05.182Z,1.27
2018-01-30T02:32:31.473Z,1.10
2018-01-30T02:34:58.470Z,0.60
2018-01-30T02:37:24.846Z,0.80
2018-01-30T02:39:51.101Z,1.20
2018-01-30T02:42:17.363Z,1.17
2018-01-30T02:44:44.396Z,0.83
2018-01-30T02:47:10.690Z,0.83
2018-01-30T02:49:37.022Z,1.10
2018-01-30T02:52:04.030Z,1.13
2018-01-30T02:54:30.366Z,0.80
2018-01-30T02:56:57.374Z,0.90
2018-01-30T02:59:23.617Z,0.83
2018-01-30T03:01:50.646Z,0.87
2018-01-30T03:04:16.992Z,0.80
2018-01-30T03:06:44.002Z,1.23
2018-01-30T03:09:11.030Z,1.37
2018-01-30T03:11:38.020Z,0.90
2018-01-30T03:14:04.310Z,1.40
2018-01-30T03:16:30.593Z,1.10
2018-01-30T03:18:57.589Z,1.83
2018-01-30T03:21:23.870Z,1.27
2018-01-30T03:23:50.321Z,1.10
2018-01-30T03:26:16.617Z,1.40
2018-01-30T03:28:42.865Z,1.87
2018-01-30T03:31:09.139Z,1.50
2018-01-30T03:33:35.425Z,1.50
2018-01-30T03:36:01.719Z,3.53
2018-01-30T03:38:27.982Z,6.20
2018-01-30T03:40:54.302Z,4.80
2018-01-30T03:43:20.578Z,3.80
2018-01-30T03:45:47.601Z,3.57
2018-01-30T03:48:13.870Z,4.30
2018-01-30T03:50:40.177Z,2.47
2018-01-30T03:53:06.422Z,2.00
2018-01-30T03:55:32.673Z,1.37
2018-01-30T03:58:04.603Z,2.17
2018-01-30T04:00:34.774Z,1.90
2018-01-30T04:03:01.062Z,2.30
2018-01-30T04:05:27.314Z,3.47
2018-01-30T04:07:53.574Z,5.47
2018-01-30T04:10:20.609Z,4.53
2018-01-30T04:12:46.874Z,3.70
2018-01-30T04:15:13.169Z,3.53
2018-01-30T04:17:39.432Z,3.50
2018-01-30T04:20:06.453Z,3.17
2018-01-30T04:22:32.729Z,2.63
2018-01-30T04:24:58.984Z,3.13
2018-01-30T04:27:25.278Z,2.80
2018-01-30T04:29:52.248Z,3.10
2018-01-30T04:32:19.241Z,2.63
2018-01-30T04:34:45.593Z,2.70
2018-01-30T04:37:12.598Z,2.70
2018-01-30T04:39:38.880Z,2.70
2018-01-30T04:42:06.631Z,3.80
2018-01-30T04:44:32.967Z,4.20
2018-01-30T04:46:59.249Z,5.93
2018-01-30T04:49:25.530Z,6.30
2018-01-30T04:51:52.551Z,5.93
2018-01-30T04:54:18.805Z,4.63
2018-01-30T04:56:45.057Z,3.60
2018-01-30T04:59:18.121Z,3.70
2018-01-30T05:01:44.371Z,3.23
2018-01-30T05:04:12.609Z,3.70
2018-01-30T05:06:38.882Z,3.30
2018-01-30T05:09:05.155Z,3.33
2018-01-30T05:11:32.356Z,3.90
2018-01-30T05:13:59.721Z,3.27
2018-01-30T05:16:33.450Z,3.27
2018-01-30T05:19:01.528Z,3.00
2018-01-30T05:21:28.513Z,2.87
2018-01-30T05:23:54.796Z,3.00
2018-01-30T05:26:25.692Z,2.30
2018-01-30T05:28:51.983Z,2.87
2018-01-30T05:31:18.984Z,2.23
2018-01-30T05:33:45.281Z,2.00
2018-01-30T05:36:11.563Z,2.23
2018-01-30T05:38:37.823Z,2.53
2018-01-30T05:41:04.093Z,2.57
2018-01-30T05:43:36.213Z,3.43
2018-01-30T05:46:02.461Z,3.57
2018-01-30T05:48:28.763Z,3.07
2018-01-30T05:50:55.800Z,3.83
2018-01-30T05:53:22.098Z,4.37
2018-01-30T05:55:49.117Z,4.63
2018-01-30T05:58:15.428Z,3.33
2018-01-30T06:00:41.694Z,3.00
2018-01-30T06:03:13.203Z,2.80
2018-01-30T06:05:40.224Z,2.33
2018-01-30T06:08:06.512Z,2.47
2018-01-30T06:10:47.334Z,2.40
2018-01-30T06:13:15.253Z,2.30
2018-01-30T06:15:42.267Z,3.00
2018-01-30T06:18:10.260Z,17.97
2018-01-30T06:20:37.730Z,23.20
2018-01-30T06:23:04.001Z,19.27
2018-01-30T06:25:30.718Z,11.97
2018-01-30T06:27:57.001Z,6.70
2018-01-30T06:30:23.442Z,6.00
2018-01-30T06:32:49.863Z,7.13
2018-01-30T06:35:16.117Z,10.80
2018-01-30T06:37:42.377Z,14.97
2018-01-30T06:40:08.668Z,16.97
2018-01-30T06:42:34.944Z,11.80
2018-01-30T06:45:01.202Z,12.43
2018-01-30T06:47:27.482Z,11.37
2018-01-30T06:49:53.776Z,8.73
2018-01-30T06:52:20.049Z,6.97
2018-01-30T06:54:46.332Z,5.70
2018-01-30T06:57:12.605Z,4.50
2018-01-30T06:59:38.887Z,4.87
2018-01-30T07:02:05.139Z,64.10
2018-01-30T07:04:31.409Z,110.50
2018-01-30T07:06:57.681Z,63.63
2018-01-30T07:09:23.929Z,41.13
2018-01-30T07:11:50.224Z,24.13
2018-01-30T07:14:18.194Z,14.07
2018-01-30T07:16:44.445Z,11.50
2018-01-30T07:19:10.728Z,9.40
2018-01-30T07:21:36.981Z,6.27
2018-01-30T07:24:03.303Z,8.33
2018-01-30T07:26:29.562Z,17.40
2018-01-30T07:28:55.817Z,22.00
2018-01-30T07:31:22.090Z,15.57
2018-01-30T07:33:49.090Z,13.97
2018-01-30T07:36:15.371Z,17.00
2018-01-30T07:38:41.622Z,22.00
2018-01-30T07:41:07.883Z,15.97
2018-01-30T07:43:34.157Z,28.40
2018-01-30T07:46:00.410Z,27.80
2018-01-30T07:48:26.671Z,24.97
2018-01-30T07:50:52.982Z,26.53
2018-01-30T07:53:19.234Z,32.83
2018-01-30T07:55:45.502Z,15.53
2018-01-30T07:58:11.778Z,18.10
2018-01-30T08:00:38.046Z,7.43
2018-01-30T08:03:04.306Z,7.40
2018-01-30T08:05:30.607Z,5.33
2018-01-30T08:07:57.606Z,6.03
2018-01-30T08:10:28.868Z,5.70
2018-01-30T08:12:55.917Z,6.63
2018-01-30T08:15:22.180Z,5.47
2018-01-30T08:17:50.060Z,5.77
2018-01-30T08:20:17.527Z,4.33
2018-01-30T08:22:43.836Z,5.40
2018-01-30T08:25:10.101Z,5.67
2018-01-30T08:27:36.425Z,4.77
2018-01-30T08:30:18.388Z,4.70
2018-01-30T08:32:44.975Z,5.63
2018-01-30T08:35:11.325Z,5.07
2018-01-30T08:37:38.218Z,7.73
2018-01-30T08:40:05.316Z,7.27
2018-01-30T08:42:31.630Z,7.40
2018-01-30T08:44:57.931Z,6.27
2018-01-30T08:47:25.323Z,4.23
2018-01-30T08:49:51.581Z,5.17
2018-01-30T08:52:17.901Z,4.27
2018-01-30T08:54:47.186Z,3.47
2018-01-30T08:57:13.469Z,2.80
2018-01-30T08:59:39.721Z,3.10
2018-01-30T09:02:05.994Z,10.50
2018-01-30T09:04:32.260Z,11.33
2018-01-30T09:06:58.547Z,18.60
2018-01-30T09:09:24.821Z,4.97
2018-01-30T09:11:51.081Z,5.80
2018-01-30T09:14:17.373Z,17.97
2018-01-30T09:16:43.650Z,5.47
2018-01-30T09:19:10.702Z,6.53
2018-01-30T09:21:37.755Z,3.13
2018-01-30T09:24:04.021Z,3.17
2018-01-30T09:26:30.313Z,3.10
2018-01-30T09:28:56.594Z,4.60
2018-01-30T09:31:22.853Z,5.40
2018-01-30T09:33:49.139Z,3.03
2018-01-30T09:36:15.427Z,4.13
2018-01-30T09:38:41.678Z,3.30
2018-01-30T09:41:08.616Z,2.27
2018-01-30T09:43:34.869Z,2.83
2018-01-30T09:46:01.890Z,2.73
2018-01-30T09:48:28.146Z,2.73
2018-01-30T09:50:54.408Z,2.30
2018-01-30T09:53:20.714Z,2.10
2018-01-30T09:55:46.982Z,5.13
2018-01-30T09:58:13.281Z,3.53
2018-01-30T10:00:39.545Z,2.03
2018-01-30T10:03:05.796Z,2.80
2018-01-30T10:05:32.093Z,3.63
2018-01-30T10:07:58.370Z,2.77
2018-01-30T10:10:24.649Z,2.20
2018-01-30T10:12:50.915Z,2.13
2018-01-30T10:15:17.233Z,1.70
2018-01-30T10:17:43.505Z,2.03
2018-01-30T10:20:10.513Z,8.27
2018-01-30T10:22:36.807Z,1.90
2018-01-30T10:25:03.080Z,2.37
2018-01-30T10:27:29.337Z,2.20
2018-01-30T10:29:55.629Z,2.37
2018-01-30T10:32:21.911Z,2.40
2018-01-30T10:34:48.933Z,2.60
2018-01-30T10:37:15.938Z,2.20
2018-01-30T10:39:42.210Z,2.00
2018-01-30T10:42:08.495Z,1.80
2018-01-30T10:44:35.502Z,1.83
2018-01-30T10:47:01.813Z,1.67
2018-01-30T10:49:28.065Z,1.90
2018-01-30T10:51:55.089Z,1.60
2018-01-30T10:54:22.179Z,1.60
2018-01-30T10:56:48.437Z,1.87
2018-01-30T10:59:15.453Z,1.67
2018-01-30T11:01:41.716Z,1.50
2018-01-30T11:04:08.041Z,1.12
2018-01-30T11:06:34.317Z,1.40
2018-01-30T11:09:01.347Z,1.42
2018-01-30T11:11:28.381Z,1.10
2018-01-30T11:13:55.373Z,1.80
2018-01-30T11:16:21.630Z,1.40
2018-01-30T11:18:48.685Z,1.00
2018-01-30T11:21:14.942Z,1.27
2018-01-30T11:23:41.229Z,1.42
2018-01-30T11:26:07.477Z,1.20
2018-01-30T11:28:34.274Z,0.98
2018-01-30T11:31:01.993Z,1.37
2018-01-30T11:33:28.558Z,1.30
2018-01-30T11:35:54.875Z,1.50
2018-01-30T11:38:21.149Z,1.42
2018-01-30T11:40:47.599Z,1.37
2018-01-30T11:43:14.084Z,1.70
2018-01-30T11:45:40.611Z,1.45
2018-01-30T11:48:06.920Z,1.30
2018-01-30T11:50:33.573Z,1.20
2018-01-30T11:52:59.890Z,1.33
2018-01-30T11:55:26.578Z,1.20
2018-01-30T11:57:53.065Z,1.23
2018-01-30T12:00:19.408Z,1.33
2018-01-30T12:02:46.592Z,1.93
2018-01-30T12:05:13.231Z,6.67
2018-01-30T12:07:39.906Z,1.50
2018-01-30T12:10:06.342Z,2.97
2018-01-30T12:12:32.782Z,2.00
2018-01-30T12:14:59.108Z,2.40
2018-01-30T12:17:25.365Z,2.07
2018-01-30T12:19:52.381Z,1.83
2018-01-30T12:22:18.666Z,2.30
2018-01-30T12:24:44.934Z,1.80
2018-01-30T12:27:11.209Z,2.10
2018-01-30T12:29:37.522Z,2.40
2018-01-30T12:32:03.769Z,1.90
2018-01-30T12:34:30.787Z,1.70
2018-01-30T12:36:57.282Z,1.93
2018-01-30T12:39:23.725Z,1.83
2018-01-30T12:41:50.014Z,1.73
2018-01-30T12:44:16.319Z,2.07
2018-01-30T12:46:42.618Z,2.20
2018-01-30T12:49:08.873Z,1.80
2018-01-30T12:51:35.152Z,1.70
2018-01-30T12:54:01.430Z,1.87
2018-01-30T12:56:28.453Z,1.80
2018-01-30T12:58:55.010Z,1.37
2018-01-30T13:01:21.270Z,1.97
2018-01-30T13:03:47.538Z,2.20
2018-01-30T13:06:13.809Z,1.80
2018-01-30T13:08:40.080Z,1.77
2018-01-30T13:11:06.364Z,1.90
2018-01-30T13:13:32.629Z,2.43
2018-01-30T13:15:58.903Z,2.63
2018-01-30T13:18:25.250Z,2.03
2018-01-30T13:20:51.516Z,1.53
2018-01-30T13:23:17.810Z,1.20
2018-01-30T13:25:44.084Z,1.80
2018-01-30T13:28:10.338Z,1.77
2018-01-30T13:30:36.630Z,1.57
2018-01-30T13:33:02.930Z,1.13
2018-01-30T13:35:29.232Z,1.23
2018-01-30T13:37:55.714Z,1.47
2018-01-30T13:40:22.130Z,1.20
2018-01-30T13:42:48.426Z,1.20
2018-01-30T13:45:14.989Z,1.00
2018-01-30T13:47:41.395Z,1.30
2018-01-30T13:50:07.812Z,1.20
2018-01-30T13:52:34.276Z,1.47
2018-01-30T13:55:00.593Z,1.40
2018-01-30T13:57:26.883Z,1.27
2018-01-30T13:59:53.281Z,1.90
2018-01-30T14:02:19.577Z,1.43
2018-01-30T14:04:45.846Z,1.30
2018-01-30T14:07:12.142Z,1.37
2018-01-30T14:09:39.141Z,1.17
2018-01-30T14:12:05.425Z,1.40
2018-01-30T14:14:31.673Z,1.10
2018-01-30T14:16:57.934Z,1.73
2018-01-30T14:19:24.266Z,1.50
2018-01-30T14:21:50.526Z,1.40
2018-01-30T14:24:17.588Z,1.40
2018-01-30T14:26:43.851Z,1.47
2018-01-30T14:29:10.109Z,2.00
2018-01-30T14:31:37.496Z,1.83
2018-01-30T14:34:03.938Z,3.00
2018-01-30T14:36:30.604Z,8.20
2018-01-30T14:38:56.861Z,10.37
2018-01-30T14:41:23.218Z,5.97
2018-01-30T14:43:49.562Z,4.07
2018-01-30T14:46:15.834Z,2.83
2018-01-30T14:48:42.886Z,2.70
2018-01-30T14:51:11.218Z,2.67
2018-01-30T14:53:37.497Z,3.33
2018-01-30T14:56:03.786Z,2.93
2018-01-30T14:58:30.092Z,2.93
2018-01-30T15:00:57.132Z,3.30
2018-01-30T15:03:24.132Z,2.97
2018-01-30T15:05:50.394Z,5.27
2018-01-30T15:08:16.675Z,2.50
2018-01-30T15:10:42.929Z,2.80
2018-01-30T15:13:09.207Z,3.33
2018-01-30T15:15:35.466Z,2.53
2018-01-30T15:18:01.748Z,3.93
2018-01-30T15:20:28.769Z,6.93
2018-01-30T15:22:55.034Z,5.13
2018-01-30T15:25:21.328Z,4.80
2018-01-30T15:27:47.599Z,5.03
2018-01-30T15:30:13.994Z,5.27
2018-01-30T15:32:40.376Z,4.80
2018-01-30T15:35:06.794Z,4.53
2018-01-30T15:37:33.845Z,5.47
2018-01-30T15:40:00.113Z,4.43
2018-01-30T15:42:26.359Z,5.27
2018-01-30T15:44:52.636Z,4.40
2018-01-30T15:47:18.924Z,4.87
2018-01-30T15:49:45.201Z,5.93
2018-01-30T15:52:11.478Z,4.07
2018-01-30T15:54:37.759Z,5.03
2018-01-30T15:57:04.029Z,5.37
2018-01-30T15:59:31.057Z,5.10
2018-01-30T16:01:58.094Z,4.97
2018-01-30T16:04:25.115Z,4.83
2018-01-30T16:06:51.400Z,4.17
2018-01-30T16:09:17.758Z,5.20
2018-01-30T16:11:44.757Z,5.30
2018-01-30T16:14:11.045Z,5.17
2018-01-30T16:16:37.363Z,5.60
2018-01-30T16:19:03.675Z,5.30
2018-01-30T16:21:29.921Z,5.43
2018-01-30T16:23:56.160Z,6.80
2018-01-30T16:26:23.171Z,6.37
2018-01-30T16:28:49.465Z,5.43
2018-01-30T16:31:15.734Z,8.27
2018-01-30T16:33:42.002Z,6.93
2018-01-30T16:36:08.309Z,6.00
2018-01-30T16:38:34.581Z,6.07
2018-01-30T16:41:00.851Z,5.83
2018-01-30T16:43:27.135Z,6.97
2018-01-30T16:45:53.424Z,5.77
2018-01-30T16:48:20.450Z,7.47
2018-01-30T16:50:47.458Z,8.57
2018-01-30T16:53:13.729Z,6.50
2018-01-30T16:55:40.046Z,6.00
2018-01-30T16:58:06.346Z,6.10
2018-01-30T17:00:32.638Z,5.57
2018-01-30T17:02:59.658Z,5.43
2018-01-30T17:05:25.915Z,5.80
2018-01-30T17:07:52.271Z,6.33
2018-01-30T17:10:18.543Z,5.40
2018-01-30T17:12:44.829Z,5.37
2018-01-30T17:15:11.098Z,5.87
2018-01-30T17:17:37.368Z,6.87
2018-01-30T17:20:04.408Z,6.47
2018-01-30T17:22:31.410Z,6.33
2018-01-30T17:24:57.699Z,6.40
2018-01-30T17:27:23.953Z,5.40
2018-01-30T17:29:50.952Z,5.20
2018-01-30T17:32:17.245Z,7.17
2018-01-30T17:34:43.499Z,7.60
2018-01-30T17:37:09.790Z,8.00
2018-01-30T17:39:36.046Z,7.60
2018-01-30T17:42:03.087Z,8.50
2018-01-30T17:44:29.390Z,8.13
2018-01-30T17:46:56.444Z,13.50
2018-01-30T17:49:22.734Z,12.97
2018-01-30T17:51:49.049Z,7.93
2018-01-30T17:54:15.358Z,9.07
2018-01-30T17:56:41.686Z,8.20
2018-01-30T17:59:08.024Z,8.87
2018-01-30T18:01:35.118Z,7.07
2018-01-30T18:04:01.467Z,7.70
2018-01-30T18:06:28.480Z,7.80
2018-01-30T18:08:54.758Z,7.47
2018-01-30T18:11:21.016Z,12.53
2018-01-30T18:13:47.308Z,13.80
2018-01-30T18:16:13.581Z,10.70
2018-01-30T18:18:39.829Z,10.43
2018-01-30T18:21:06.114Z,14.57
2018-01-30T18:23:32.372Z,25.53
2018-01-30T18:25:58.842Z,21.90
2018-01-30T18:28:25.838Z,32.87
2018-01-30T18:30:52.166Z,45.40
2018-01-30T18:33:19.200Z,53.77
2018-01-30T18:35:46.309Z,32.80
2018-01-30T18:38:12.863Z,33.67
2018-01-30T18:40:39.128Z,27.13
2018-01-30T18:43:05.594Z,18.43
2018-01-30T18:45:32.721Z,17.50
2018-01-30T18:47:59.728Z,13.83
2018-01-30T18:50:27.340Z,15.23
2018-01-30T18:52:53.786Z,13.13
2018-01-30T18:55:20.867Z,10.77
2018-01-30T18:57:47.218Z,10.80
2018-01-30T19:00:13.604Z,37.60
2018-01-30T19:02:39.962Z,45.57
2018-01-30T19:05:06.798Z,41.27
2018-01-30T19:07:33.313Z,24.90
2018-01-30T19:09:59.651Z,28.53
2018-01-30T19:12:27.028Z,26.93
2018-01-30T19:14:53.506Z,26.40
2018-01-30T19:17:19.787Z,24.97
2018-01-30T19:19:46.073Z,22.97
2018-01-30T19:22:12.353Z,19.00
2018-01-30T19:24:38.610Z,18.60
2018-01-30T19:27:05.123Z,15.33
2018-01-30T19:29:31.465Z,17.03
2018-01-30T19:31:58.473Z,15.03
2018-01-30T19:34:25.492Z,15.43
2018-01-30T19:36:52.657Z,14.70
2018-01-30T19:39:18.986Z,14.87
2018-01-30T19:41:45.260Z,14.00
2018-01-30T19:44:11.652Z,11.13
2018-01-30T19:46:37.967Z,9.63
2018-01-30T19:49:04.318Z,9.37
2018-01-30T19:51:30.832Z,12.70
2018-01-30T19:53:57.164Z,10.03
2018-01-30T19:56:23.547Z,9.00
2018-01-30T19:58:49.828Z,8.40
2018-01-30T20:01:16.200Z,7.80
2018-01-30T20:03:42.497Z,8.70
2018-01-30T20:06:09.035Z,8.73
2018-01-30T20:08:35.328Z,9.10
2018-01-30T20:11:01.814Z,10.07
2018-01-30T20:13:28.112Z,9.20
2018-01-30T20:15:54.407Z,9.60
2018-01-30T20:18:20.746Z,9.97
2018-01-30T20:20:47.010Z,9.33
2018-01-30T20:23:13.392Z,8.37
2018-01-30T20:25:39.657Z,8.53
2018-01-30T20:28:06.691Z,9.57
2018-01-30T20:30:32.997Z,10.57
2018-01-30T20:32:59.274Z,10.37
2018-01-30T20:35:25.584Z,10.97
2018-01-30T20:37:51.861Z,12.73
2018-01-30T20:40:18.193Z,14.17
2018-01-30T20:42:44.462Z,11.30
2018-01-30T20:45:10.780Z,11.70
2018-01-30T20:47:37.074Z,13.23
2018-01-30T20:50:03.369Z,12.10
2018-01-30T20:52:29.639Z,10.30
2018-01-30T20:54:56.670Z,12.53
2018-01-30T20:57:23.702Z,14.10
2018-01-30T20:59:50.738Z,13.90
2018-01-30T21:02:17.807Z,11.30
2018-01-30T21:04:44.053Z,11.03
2018-01-30T21:07:10.508Z,10.20
2018-01-30T21:09:37.518Z,10.37
2018-01-30T21:12:03.825Z,9.27
2018-01-30T21:14:30.103Z,9.40
2018-01-30T21:16:56.362Z,8.90
2018-01-30T21:19:22.666Z,10.20
2018-01-30T21:21:48.932Z,9.83
2018-01-30T21:24:15.206Z,11.63
2018-01-30T21:26:41.492Z,9.10
2018-01-30T21:29:07.739Z,10.93
2018-01-30T21:31:34.101Z,10.33
2018-01-30T21:34:00.378Z,11.20
2018-01-30T21:36:26.661Z,10.73
2018-01-30T21:38:54.049Z,9.80
2018-01-30T21:41:21.080Z,9.60
2018-01-30T21:43:48.118Z,9.70
2018-01-30T21:46:14.405Z,10.90
2018-01-30T21:48:40.722Z,13.30
2018-01-30T21:51:07.030Z,13.00
2018-01-30T21:53:33.314Z,12.00
2018-01-30T21:55:59.646Z,11.97
2018-01-30T21:58:25.905Z,13.63
2018-01-30T22:00:52.978Z,14.83
2018-01-30T22:03:19.341Z,13.33
2018-01-30T22:05:45.638Z,15.70
2018-01-30T22:08:11.978Z,16.80
2018-01-30T22:10:38.307Z,16.33
2018-01-30T22:13:05.169Z,14.70
2018-01-30T22:15:31.462Z,11.97
2018-01-30T22:17:59.412Z,10.90
2018-01-30T22:20:25.770Z,16.57
2018-01-30T22:22:52.041Z,16.80
2018-01-30T22:25:19.281Z,12.63
2018-01-30T22:27:46.320Z,11.60
2018-01-30T22:30:12.581Z,9.63
2018-01-30T22:32:39.121Z,9.57
2018-01-30T22:35:05.394Z,11.07
2018-01-30T22:37:31.648Z,10.27
2018-01-30T22:39:57.913Z,16.77
2018-01-30T22:42:25.773Z,17.57
2018-01-30T22:44:52.229Z,18.73
